createdAt,value
2017-01-31T00:00:41.264Z,99.99
2017-01-31T00:01:41.280Z,99.99
2017-01-31T00:02:41.236Z,99.99
2017-01-31T00:03:41.219Z,99.99
2017-01-31T00:04:41.205Z,99.8
2017-01-31T00:05:41.192Z,99.99
2017-01-31T00:06:41.176Z,99.99
2017-01-31T00:07:41.160Z,99.71
2017-01-31T00:08:41.144Z,99.99
2017-01-31T00:09:41.132Z,99.9
2017-01-31T00:10:41.115Z,99.71
2017-01-31T00:11:41.101Z,99.99
2017-01-31T00:12:41.087Z,99.9
2017-01-31T00:13:41.070Z,99.99
2017-01-31T00:14:41.060Z,99.99
2017-01-31T00:15:41.041Z,99.99
2017-01-31T00:16:41.026Z,99.99
2017-01-31T00:17:41.011Z,99.99
2017-01-31T00:18:40.998Z,99.99
2017-01-31T00:19:40.979Z,99.99
2017-01-31T00:20:40.967Z,99.71
2017-01-31T00:21:40.948Z,99.9
2017-01-31T00:22:40.934Z,99.71
2017-01-31T00:23:40.919Z,99.71
2017-01-31T00:24:40.905Z,99.8
2017-01-31T00:25:40.888Z,99.9
2017-01-31T00:26:40.876Z,99.62
2017-01-31T00:27:40.861Z,99.99
2017-01-31T00:28:40.846Z,99.99
2017-01-31T00:29:40.831Z,99.52
2017-01-31T00:30:40.819Z,99.71
2017-01-31T00:31:40.828Z,99.99
2017-01-31T00:32:40.784Z,99.52
2017-01-31T00:33:40.769Z,99.52
2017-01-31T00:34:40.755Z,99.9
2017-01-31T00:35:40.740Z,99.33
2017-01-31T00:36:40.728Z,99.24
2017-01-31T00:37:40.712Z,99.24
2017-01-31T00:38:40.696Z,99.24
2017-01-31T00:39:40.681Z,99.24
2017-01-31T00:40:40.672Z,99.62
2017-01-31T00:41:40.651Z,99.43
2017-01-31T00:42:40.637Z,99.52
2017-01-31T00:43:40.624Z,99.33
2017-01-31T00:44:40.613Z,99.52
2017-01-31T00:45:40.594Z,99.52
2017-01-31T00:46:40.580Z,99.71
2017-01-31T00:47:40.561Z,99.71
2017-01-31T00:48:40.551Z,99.99
2017-01-31T00:49:40.535Z,99.9
2017-01-31T00:50:40.518Z,99.71
2017-01-31T00:51:40.534Z,99.9
2017-01-31T00:52:40.488Z,99.9
2017-01-31T00:53:40.471Z,99.71
2017-01-31T00:54:40.459Z,99.71
2017-01-31T00:55:40.444Z,99.8
2017-01-31T00:56:40.428Z,99.99
2017-01-31T00:57:40.414Z,99.71
2017-01-31T00:58:40.014Z,99.9
2017-01-31T00:59:40.384Z,99.9
2017-01-31T01:00:40.373Z,99.71
2017-01-31T01:01:40.356Z,99.99
2017-01-31T01:02:40.339Z,99.9
2017-01-31T01:03:40.322Z,99.9
2017-01-31T01:04:40.313Z,99.9
2017-01-31T01:05:40.293Z,99.9
2017-01-31T01:06:40.278Z,99.71
2017-01-31T01:07:40.264Z,99.8
2017-01-31T01:08:40.251Z,99.71
2017-01-31T01:09:40.235Z,99.52
2017-01-31T01:10:40.223Z,99.9
2017-01-31T01:11:40.206Z,99.52
2017-01-31T01:12:40.191Z,99.8
2017-01-31T01:13:40.175Z,99.62
2017-01-31T01:14:40.159Z,99.52
2017-01-31T01:15:40.145Z,99.52
2017-01-31T01:16:40.132Z,99.71
2017-01-31T01:17:40.114Z,99.52
2017-01-31T01:18:40.100Z,99.9
2017-01-31T01:19:40.087Z,99.9
2017-01-31T01:20:40.070Z,99.99
2017-01-31T01:21:40.058Z,99.9
2017-01-31T01:22:40.041Z,99.71
2017-01-31T01:23:40.036Z,99.71
2017-01-31T01:24:40.012Z,99.71
2017-01-31T01:25:39.998Z,99.33
2017-01-31T01:26:39.983Z,99.9
2017-01-31T01:27:39.967Z,99.9
2017-01-31T01:28:39.951Z,99.52
2017-01-31T01:29:39.937Z,99.8
2017-01-31T01:30:39.924Z,99.9
2017-01-31T01:31:39.906Z,99.8
2017-01-31T01:32:39.893Z,99.95
2017-01-31T01:33:39.879Z,99.24
2017-01-31T01:34:39.863Z,99.33
2017-01-31T01:35:39.849Z,98.96
2017-01-31T01:36:39.838Z,99.62
2017-01-31T01:37:39.820Z,99.33
2017-01-31T01:38:39.814Z,99.62
2017-01-31T01:39:39.790Z,99.62
2017-01-31T01:40:39.774Z,99.62
2017-01-31T01:41:39.760Z,99.33
2017-01-31T01:42:39.746Z,98.96
2017-01-31T01:43:39.739Z,99.43
2017-01-31T01:44:39.717Z,99.33
2017-01-31T01:45:39.702Z,99.43
2017-01-31T01:46:39.687Z,99.52
2017-01-31T01:47:39.672Z,99.52
2017-01-31T01:48:39.658Z,99.52
2017-01-31T01:49:39.640Z,99.52
2017-01-31T01:50:39.627Z,99.57
2017-01-31T01:51:39.614Z,99.43
2017-01-31T01:52:39.597Z,99.57
2017-01-31T01:53:39.583Z,99.48
2017-01-31T01:54:39.572Z,99.38
2017-01-31T01:55:39.557Z,99.29
2017-01-31T01:56:39.538Z,99.38
2017-01-31T01:57:39.523Z,99.33
2017-01-31T01:58:39.511Z,99.38
2017-01-31T01:59:39.499Z,99.29
2017-01-31T02:00:39.481Z,99.48
2017-01-31T02:01:39.465Z,99.38
2017-01-31T02:02:39.451Z,99.38
2017-01-31T02:03:39.435Z,99.19
2017-01-31T02:04:39.421Z,98.72
2017-01-31T02:05:39.407Z,98.82
2017-01-31T02:06:39.391Z,99.38
2017-01-31T02:07:39.377Z,99.38
2017-01-31T02:08:39.360Z,99.29
2017-01-31T02:09:39.346Z,98.82
2017-01-31T02:10:39.337Z,98.72
2017-01-31T02:11:39.325Z,99.01
2017-01-31T02:12:39.304Z,99.1
2017-01-31T02:13:39.292Z,99.19
2017-01-31T02:14:39.276Z,98.63
2017-01-31T02:15:39.260Z,98.53
2017-01-31T02:16:39.246Z,98.34
2017-01-31T02:17:39.232Z,98.44
2017-01-31T02:18:39.215Z,98.25
2017-01-31T02:19:39.201Z,99.1
2017-01-31T02:20:39.192Z,99.01
2017-01-31T02:21:39.172Z,98.58
2017-01-31T02:22:39.158Z,98.96
2017-01-31T02:23:38.755Z,98.86
2017-01-31T02:24:39.129Z,99.52
2017-01-31T02:25:39.116Z,99.33
2017-01-31T02:26:39.099Z,99.24
2017-01-31T02:27:39.083Z,99.33
2017-01-31T02:28:38.683Z,99.52
2017-01-31T02:29:39.053Z,99.52
2017-01-31T02:30:39.038Z,99.43
2017-01-31T02:31:39.024Z,99.52
2017-01-31T02:32:39.009Z,99.24
2017-01-31T02:33:38.609Z,99.52
2017-01-31T02:34:38.979Z,99.15
2017-01-31T02:35:38.968Z,99.62
2017-01-31T02:36:38.952Z,99.9
2017-01-31T02:37:38.968Z,99.62
2017-01-31T02:38:38.533Z,99.99
2017-01-31T02:39:38.909Z,99.62
2017-01-31T02:40:38.889Z,99.62
2017-01-31T02:41:38.876Z,99.71
2017-01-31T02:42:38.861Z,99.9
2017-01-31T02:43:38.845Z,99.9
2017-01-31T02:44:38.830Z,99.9
2017-01-31T02:45:38.816Z,99.99
2017-01-31T02:46:38.804Z,99.99
2017-01-31T02:47:38.787Z,99.99
2017-01-31T02:48:38.772Z,99.99
2017-01-31T02:49:38.785Z,99.99
2017-01-31T02:50:38.749Z,99.99
2017-01-31T02:51:38.727Z,99.99
2017-01-31T02:52:38.715Z,99.71
2017-01-31T02:53:38.697Z,99.62
2017-01-31T02:54:38.682Z,99.52
2017-01-31T02:55:38.666Z,99.99
2017-01-31T02:56:38.650Z,99.8
2017-01-31T02:57:38.664Z,99.71
2017-01-31T02:58:38.626Z,99.99
2017-01-31T02:59:38.608Z,99.8
2017-01-31T03:00:38.595Z,99.99
2017-01-31T03:01:38.577Z,99.99
2017-01-31T03:02:38.564Z,99.99
2017-01-31T03:03:38.546Z,99.99
2017-01-31T03:04:38.535Z,99.99
2017-01-31T03:05:38.517Z,99.99
2017-01-31T03:06:38.503Z,99.99
2017-01-31T03:07:38.490Z,99.99
2017-01-31T03:08:38.472Z,99.99
2017-01-31T03:09:38.459Z,99.99
2017-01-31T03:10:38.444Z,99.8
2017-01-31T03:11:38.430Z,99.99
2017-01-31T03:12:38.417Z,99.99
2017-01-31T03:13:38.398Z,99.99
2017-01-31T03:14:38.381Z,99.99
2017-01-31T03:15:38.368Z,99.99
2017-01-31T03:16:38.354Z,99.99
2017-01-31T03:17:38.337Z,99.8
2017-01-31T03:18:38.322Z,99.99
2017-01-31T03:19:37.929Z,99.99
2017-01-31T03:20:38.292Z,99.8
2017-01-31T03:21:38.279Z,99.33
2017-01-31T03:22:38.264Z,99.57
2017-01-31T03:23:38.248Z,99.71
2017-01-31T03:24:38.232Z,99.71
2017-01-31T03:25:38.246Z,99.99
2017-01-31T03:26:38.204Z,99.99
2017-01-31T03:27:38.189Z,99.99
2017-01-31T03:28:38.181Z,99.52
2017-01-31T03:29:37.778Z,99.99
2017-01-31T03:30:38.146Z,99.8
2017-01-31T03:31:38.130Z,99.9
2017-01-31T03:32:38.114Z,99.99
2017-01-31T03:33:38.101Z,99.9
2017-01-31T03:34:38.087Z,99.99
2017-01-31T03:35:38.069Z,99.76
2017-01-31T03:36:38.056Z,99.99
2017-01-31T03:37:38.045Z,99.99
2017-01-31T03:38:38.027Z,99.99
2017-01-31T03:39:38.010Z,99.99
2017-01-31T03:40:37.997Z,99.52
2017-01-31T03:41:37.983Z,99.99
2017-01-31T03:42:37.970Z,99.99
2017-01-31T03:43:37.953Z,99.99
2017-01-31T03:44:37.937Z,99.9
2017-01-31T03:45:37.921Z,99.99
2017-01-31T03:46:37.909Z,99.99
2017-01-31T03:47:37.901Z,99.99
2017-01-31T03:48:37.879Z,99.85
2017-01-31T03:49:37.864Z,99.9
2017-01-31T03:50:37.849Z,99.9
2017-01-31T03:51:37.835Z,99.9
2017-01-31T03:52:37.441Z,99.66
2017-01-31T03:53:37.808Z,99.9
2017-01-31T03:54:37.791Z,99.9
2017-01-31T03:55:37.774Z,99.9
2017-01-31T03:56:37.761Z,99.62
2017-01-31T03:57:37.747Z,99.52
2017-01-31T03:58:37.733Z,99.9
2017-01-31T03:59:37.742Z,99.8
2017-01-31T04:00:37.701Z,99.9
2017-01-31T04:01:37.686Z,99.8
2017-01-31T04:02:37.673Z,99.71
2017-01-31T04:03:37.657Z,99.9
2017-01-31T04:04:37.641Z,99.9
2017-01-31T04:05:37.626Z,99.52
2017-01-31T04:06:37.613Z,99.99
2017-01-31T04:07:37.625Z,99.71
2017-01-31T04:08:37.582Z,99.8
2017-01-31T04:09:37.575Z,99.99
2017-01-31T04:10:37.555Z,99.8
2017-01-31T04:11:37.540Z,99.71
2017-01-31T04:12:37.524Z,99.71
2017-01-31T04:13:37.506Z,99.71
2017-01-31T04:14:37.496Z,99.99
2017-01-31T04:15:37.478Z,99.71
2017-01-31T04:16:37.464Z,99.9
2017-01-31T04:17:37.449Z,99.9
2017-01-31T04:18:37.444Z,99.99
2017-01-31T04:19:37.417Z,99.71
2017-01-31T04:20:37.404Z,99.9
2017-01-31T04:21:37.391Z,99.9
2017-01-31T04:22:37.378Z,99.9
2017-01-31T04:23:37.364Z,99.52
2017-01-31T04:24:37.344Z,99.9
2017-01-31T04:25:37.332Z,99.95
2017-01-31T04:26:37.315Z,99.99
2017-01-31T04:27:37.300Z,99.71
2017-01-31T04:28:37.286Z,99.52
2017-01-31T04:29:37.273Z,99.9
2017-01-31T04:30:37.255Z,99.15
2017-01-31T04:31:37.240Z,99.24
2017-01-31T04:32:37.226Z,99.52
2017-01-31T04:33:37.214Z,99.24
2017-01-31T04:34:37.198Z,99.71
2017-01-31T04:35:37.184Z,99.9
2017-01-31T04:36:37.178Z,99.9
2017-01-31T04:37:37.152Z,99.9
2017-01-31T04:38:37.137Z,99.9
2017-01-31T04:39:37.122Z,99.9
2017-01-31T04:40:37.107Z,99.8
2017-01-31T04:41:37.091Z,99.8
2017-01-31T04:42:37.082Z,99.99
2017-01-31T04:43:37.063Z,99.99
2017-01-31T04:44:37.047Z,99.99
2017-01-31T04:45:37.037Z,99.99
2017-01-31T04:46:37.027Z,99.99
2017-01-31T04:47:37.008Z,99.99
2017-01-31T04:48:36.989Z,99.99
2017-01-31T04:49:36.974Z,99.9
2017-01-31T04:50:36.961Z,99.99
2017-01-31T04:51:36.951Z,99.9
2017-01-31T04:52:36.930Z,99.9
2017-01-31T04:53:36.914Z,99.9
2017-01-31T04:54:36.906Z,99.9
2017-01-31T04:55:36.886Z,99.62
2017-01-31T04:56:36.872Z,99.99
2017-01-31T04:57:36.858Z,99.71
2017-01-31T04:58:36.841Z,99.52
2017-01-31T04:59:36.859Z,99.52
2017-01-31T05:00:36.811Z,99.52
2017-01-31T05:01:36.797Z,99.52
2017-01-31T05:02:36.780Z,99.99
2017-01-31T05:03:36.767Z,99.71
2017-01-31T05:04:36.750Z,99.71
2017-01-31T05:05:36.740Z,99.71
2017-01-31T05:06:36.727Z,99.71
2017-01-31T05:07:36.706Z,99.9
2017-01-31T05:08:36.691Z,99.8
2017-01-31T05:09:36.677Z,99.71
2017-01-31T05:10:36.663Z,99.99
2017-01-31T05:11:36.646Z,99.9
2017-01-31T05:12:36.631Z,99.9
2017-01-31T05:13:36.236Z,99.8
2017-01-31T05:14:36.603Z,99.9
2017-01-31T05:15:36.589Z,99.9
2017-01-31T05:16:36.572Z,99.9
2017-01-31T05:17:36.563Z,99.52
2017-01-31T05:18:36.543Z,99.43
2017-01-31T05:19:36.527Z,99.24
2017-01-31T05:20:36.512Z,99.15
2017-01-31T05:21:36.504Z,99.24
2017-01-31T05:22:36.487Z,99.43
2017-01-31T05:23:36.466Z,99.43
2017-01-31T05:24:36.453Z,99.52
2017-01-31T05:25:36.439Z,99.33
2017-01-31T05:26:36.424Z,99.62
2017-01-31T05:27:36.409Z,99.62
2017-01-31T05:28:36.392Z,99.52
2017-01-31T05:29:36.381Z,99.8
2017-01-31T05:30:36.364Z,99.9
2017-01-31T05:31:36.348Z,99.9
2017-01-31T05:32:36.334Z,99.9
2017-01-31T05:33:36.318Z,99.62
2017-01-31T05:34:36.305Z,99.8
2017-01-31T05:35:36.289Z,99.15
2017-01-31T05:36:36.277Z,99.52
2017-01-31T05:37:36.260Z,99.33
2017-01-31T05:38:36.247Z,99.33
2017-01-31T05:39:36.230Z,99.43
2017-01-31T05:40:35.828Z,99.33
2017-01-31T05:41:36.199Z,99.15
2017-01-31T05:42:36.185Z,99.43
2017-01-31T05:43:36.169Z,99.52
2017-01-31T05:44:36.156Z,99.33
2017-01-31T05:45:36.141Z,99.33
2017-01-31T05:46:36.127Z,99.52
2017-01-31T05:47:36.108Z,99.43
2017-01-31T05:48:36.096Z,99.05
2017-01-31T05:49:36.088Z,99.9
2017-01-31T05:50:36.070Z,99.33
2017-01-31T05:51:36.084Z,99.43
2017-01-31T05:52:36.036Z,99.43
2017-01-31T05:53:36.022Z,98.96
2017-01-31T05:54:36.008Z,99.99
2017-01-31T05:55:36.004Z,99.62
2017-01-31T05:56:35.976Z,99.52
2017-01-31T05:57:35.961Z,99.8
2017-01-31T05:58:35.946Z,99.99
2017-01-31T05:59:35.940Z,99.99
2017-01-31T06:00:35.917Z,99.9
2017-01-31T06:01:35.902Z,99.99
2017-01-31T06:02:35.886Z,99.8
2017-01-31T06:03:35.872Z,99.99
2017-01-31T06:04:35.861Z,99.99
2017-01-31T06:05:35.842Z,99.99
2017-01-31T06:06:35.828Z,99.99
2017-01-31T06:07:35.811Z,99.9
2017-01-31T06:08:35.797Z,99.99
2017-01-31T06:09:35.790Z,99.99
2017-01-31T06:10:35.771Z,99.99
2017-01-31T06:11:35.754Z,99.99
2017-01-31T06:12:35.740Z,99.8
2017-01-31T06:13:35.722Z,99.9
2017-01-31T06:14:35.708Z,99.71
2017-01-31T06:15:35.695Z,99.9
2017-01-31T06:16:35.678Z,99.99
2017-01-31T06:17:35.663Z,99.99
2017-01-31T06:18:35.649Z,99.99
2017-01-31T06:19:35.634Z,99.99
2017-01-31T06:20:35.619Z,99.9
2017-01-31T06:21:35.603Z,99.95
2017-01-31T06:22:35.591Z,99.85
2017-01-31T06:23:35.574Z,99.85
2017-01-31T06:24:35.561Z,99.71
2017-01-31T06:25:35.546Z,99.85
2017-01-31T06:26:35.532Z,99.66
2017-01-31T06:27:35.517Z,99.95
2017-01-31T06:28:35.502Z,99.85
2017-01-31T06:29:35.485Z,99.57
2017-01-31T06:30:35.471Z,99.48
2017-01-31T06:31:35.456Z,99.38
2017-01-31T06:32:35.443Z,99.48
2017-01-31T06:33:35.429Z,99.29
2017-01-31T06:34:35.417Z,99.1
2017-01-31T06:35:35.400Z,99.01
2017-01-31T06:36:35.382Z,99.01
2017-01-31T06:37:35.369Z,98.91
2017-01-31T06:38:35.354Z,98.72
2017-01-31T06:39:35.338Z,98.82
2017-01-31T06:40:35.323Z,98.63
2017-01-31T06:41:35.308Z,99.48
2017-01-31T06:42:35.295Z,99.57
2017-01-31T06:43:35.280Z,99.48
2017-01-31T06:44:35.266Z,99.38
2017-01-31T06:45:34.865Z,99.48
2017-01-31T06:46:35.237Z,98.82
2017-01-31T06:47:35.220Z,98.63
2017-01-31T06:48:35.207Z,98.91
2017-01-31T06:49:35.193Z,98.91
2017-01-31T06:50:35.177Z,98.82
2017-01-31T06:51:35.164Z,98.82
2017-01-31T06:52:35.149Z,99.01
2017-01-31T06:53:35.139Z,98.53
2017-01-31T06:54:35.124Z,98.53
2017-01-31T06:55:35.105Z,98.44
2017-01-31T06:56:35.087Z,98.44
2017-01-31T06:57:35.077Z,98.63
2017-01-31T06:58:35.059Z,98.63
2017-01-31T06:59:35.045Z,98.63
2017-01-31T07:00:35.037Z,98.82
2017-01-31T07:01:35.041Z,98.06
2017-01-31T07:02:35.042Z,98.34
2017-01-31T07:03:34.985Z,98.44
2017-01-31T07:04:34.972Z,98.25
2017-01-31T07:05:34.957Z,98.44
2017-01-31T07:06:34.943Z,98.53
2017-01-31T07:07:34.936Z,98.34
2017-01-31T07:08:34.920Z,98.44
2017-01-31T07:09:34.902Z,97.77
2017-01-31T07:10:34.885Z,97.87
2017-01-31T07:11:34.869Z,97.49
2017-01-31T07:12:34.856Z,97.77
2017-01-31T07:13:34.843Z,98.15
2017-01-31T07:14:34.828Z,98.72
2017-01-31T07:15:34.813Z,98.63
2017-01-31T07:16:34.799Z,97.87
2017-01-31T07:17:34.782Z,98.15
2017-01-31T07:18:34.771Z,97.77
2017-01-31T07:19:34.754Z,97.87
2017-01-31T07:20:34.739Z,97.77
2017-01-31T07:21:34.725Z,98.06
2017-01-31T07:22:34.323Z,97.77
2017-01-31T07:23:34.695Z,97.87
2017-01-31T07:24:34.687Z,97.87
2017-01-31T07:25:34.667Z,97.58
2017-01-31T07:26:34.652Z,97.49
2017-01-31T07:27:34.638Z,98.15
2017-01-31T07:28:34.628Z,97.77
2017-01-31T07:29:34.611Z,97.87
2017-01-31T07:30:34.598Z,97.39
2017-01-31T07:31:34.582Z,98.15
2017-01-31T07:32:34.568Z,98.06
2017-01-31T07:33:34.551Z,97.77
2017-01-31T07:34:34.555Z,97.58
2017-01-31T07:35:34.524Z,97.58
2017-01-31T07:36:34.511Z,97.58
2017-01-31T07:37:34.494Z,97.77
2017-01-31T07:38:34.479Z,97.87
2017-01-31T07:39:34.467Z,97.77
2017-01-31T07:40:34.450Z,97.68
2017-01-31T07:41:34.437Z,97.87
2017-01-31T07:42:34.034Z,97.77
2017-01-31T07:43:34.410Z,97.49
2017-01-31T07:44:34.010Z,97.87
2017-01-31T07:45:34.379Z,97.49
2017-01-31T07:46:34.372Z,96.73
2017-01-31T07:47:34.349Z,97.3
2017-01-31T07:48:34.334Z,97.39
2017-01-31T07:49:34.325Z,97.02
2017-01-31T07:50:33.921Z,97.39
2017-01-31T07:51:34.294Z,97.58
2017-01-31T07:52:34.280Z,97.96
2017-01-31T07:53:34.266Z,97.82
2017-01-31T07:54:34.256Z,97.3
2017-01-31T07:55:34.240Z,96.69
2017-01-31T07:56:34.223Z,96.35
2017-01-31T07:57:34.210Z,95.69
2017-01-31T07:58:34.196Z,96.26
2017-01-31T07:59:34.181Z,96.73
2017-01-31T08:00:34.167Z,96.35
2017-01-31T08:01:34.179Z,96.54
2017-01-31T08:02:34.167Z,96.07
2017-01-31T08:03:34.151Z,96.35
2017-01-31T08:04:34.110Z,96.26
2017-01-31T08:05:34.093Z,96.54
2017-01-31T08:06:34.084Z,96.73
2017-01-31T08:07:34.068Z,96.64
2017-01-31T08:08:34.052Z,96.4
2017-01-31T08:09:34.038Z,96.78
2017-01-31T08:10:34.031Z,96.02
2017-01-31T08:11:34.011Z,96.73
2017-01-31T08:12:33.998Z,96.12
2017-01-31T08:13:33.983Z,96.02
2017-01-31T08:14:33.969Z,96.02
2017-01-31T08:15:33.959Z,96.69
2017-01-31T08:16:33.940Z,95.83
2017-01-31T08:17:33.933Z,95.55
2017-01-31T08:18:33.911Z,95.64
2017-01-31T08:19:33.901Z,95.26
2017-01-31T08:20:33.885Z,95.64
2017-01-31T08:21:33.872Z,95.83
2017-01-31T08:22:33.855Z,95.07
2017-01-31T08:23:33.845Z,95.26
2017-01-31T08:24:33.830Z,95.26
2017-01-31T08:25:33.815Z,95.26
2017-01-31T08:26:33.801Z,95.36
2017-01-31T08:27:33.788Z,95.45
2017-01-31T08:28:33.780Z,95.45
2017-01-31T08:29:33.762Z,95.36
2017-01-31T08:30:33.745Z,95.64
2017-01-31T08:31:33.732Z,95.26
2017-01-31T08:32:33.718Z,95.93
2017-01-31T08:33:33.704Z,95.45
2017-01-31T08:34:33.689Z,95.17
2017-01-31T08:35:33.677Z,95.07
2017-01-31T08:36:33.662Z,94.89
2017-01-31T08:37:33.650Z,94.51
2017-01-31T08:38:33.635Z,95.07
2017-01-31T08:39:33.619Z,95.45
2017-01-31T08:40:33.612Z,95.45
2017-01-31T08:41:33.595Z,95.26
2017-01-31T08:42:33.579Z,95.64
2017-01-31T08:43:33.565Z,95.36
2017-01-31T08:44:33.555Z,95.36
2017-01-31T08:45:33.537Z,94.6
2017-01-31T08:46:33.526Z,94.89
2017-01-31T08:47:33.510Z,95.07
2017-01-31T08:48:33.498Z,94.74
2017-01-31T08:49:33.484Z,95.03
2017-01-31T08:50:33.472Z,95.12
2017-01-31T08:51:33.457Z,94.65
2017-01-31T08:52:33.445Z,94.93
2017-01-31T08:53:33.429Z,94.74
2017-01-31T08:54:33.424Z,94.84
2017-01-31T08:55:33.404Z,94.65
2017-01-31T08:56:33.389Z,95.12
2017-01-31T08:57:32.994Z,95.12
2017-01-31T08:58:33.365Z,94.46
2017-01-31T08:59:33.351Z,94.37
2017-01-31T09:00:33.340Z,93.7
2017-01-31T09:01:33.324Z,93.23
2017-01-31T09:02:33.312Z,93.32
2017-01-31T09:03:33.298Z,93.51
2017-01-31T09:04:33.315Z,93.23
2017-01-31T09:05:33.301Z,93.89
2017-01-31T09:06:33.256Z,93.13
2017-01-31T09:07:33.244Z,92.76
2017-01-31T09:08:33.231Z,92.76
2017-01-31T09:09:33.217Z,93.32
2017-01-31T09:10:33.203Z,93.51
2017-01-31T09:11:32.806Z,93.99
2017-01-31T09:12:33.207Z,93.32
2017-01-31T09:13:33.167Z,93.51
2017-01-31T09:14:33.151Z,93.32
2017-01-31T09:15:33.138Z,92.94
2017-01-31T09:16:33.130Z,92.85
2017-01-31T09:17:33.113Z,92.85
2017-01-31T09:18:33.097Z,92.85
2017-01-31T09:19:33.083Z,93.23
2017-01-31T09:20:33.073Z,93.51
2017-01-31T09:21:33.059Z,93.23
2017-01-31T09:22:33.044Z,93.04
2017-01-31T09:23:32.672Z,92.94
2017-01-31T09:24:33.017Z,92.28
2017-01-31T09:25:33.006Z,93.04
2017-01-31T09:26:32.993Z,93.04
2017-01-31T09:27:32.980Z,93.13
2017-01-31T09:28:32.965Z,93.7
2017-01-31T09:29:32.584Z,93.04
2017-01-31T09:30:32.942Z,92.94
2017-01-31T09:31:32.927Z,92.57
2017-01-31T09:32:32.918Z,92.85
2017-01-31T09:33:32.901Z,92.57
2017-01-31T09:34:32.887Z,93.13
2017-01-31T09:35:32.874Z,93.13
2017-01-31T09:36:32.861Z,92.47
2017-01-31T09:37:32.849Z,92.28
2017-01-31T09:38:32.837Z,92.85
2017-01-31T09:39:32.824Z,93.32
2017-01-31T09:40:32.807Z,93.13
2017-01-31T09:41:32.798Z,92.85
2017-01-31T09:42:32.402Z,92.38
2017-01-31T09:43:32.771Z,92.61
2017-01-31T09:44:32.758Z,92.52
2017-01-31T09:45:32.745Z,93.37
2017-01-31T09:46:32.733Z,93.27
2017-01-31T09:47:32.720Z,91.57
2017-01-31T09:48:32.704Z,91.57
2017-01-31T09:49:32.695Z,91.85
2017-01-31T09:50:32.682Z,92.61
2017-01-31T09:51:32.667Z,92.33
2017-01-31T09:52:32.654Z,92.71
2017-01-31T09:53:32.643Z,92.8
2017-01-31T09:54:32.629Z,93.18
2017-01-31T09:55:32.619Z,92.71
2017-01-31T09:56:32.604Z,92.42
2017-01-31T09:57:32.592Z,91.95
2017-01-31T09:58:32.580Z,91.66
2017-01-31T09:59:32.569Z,91.28
2017-01-31T10:00:32.553Z,90.62
2017-01-31T10:01:32.543Z,90.43
2017-01-31T10:02:32.142Z,90.53
2017-01-31T10:03:32.518Z,91.09
2017-01-31T10:04:32.505Z,90.91
2017-01-31T10:05:32.492Z,91
2017-01-31T10:06:32.484Z,90.91
2017-01-31T10:07:32.477Z,90.62
2017-01-31T10:08:32.456Z,90.53
2017-01-31T10:09:32.444Z,90.34
2017-01-31T10:10:32.430Z,90.05
2017-01-31T10:11:32.420Z,90.05
2017-01-31T10:12:32.409Z,90.05
2017-01-31T10:13:32.398Z,91
2017-01-31T10:14:32.386Z,90.81
2017-01-31T10:15:32.370Z,89.96
2017-01-31T10:16:32.560Z,90.24
2017-01-31T10:17:32.344Z,90.15
2017-01-31T10:18:32.335Z,89.77
2017-01-31T10:19:32.327Z,90.81
2017-01-31T10:20:32.309Z,90.53
2017-01-31T10:21:32.295Z,90.34
2017-01-31T10:22:32.285Z,90.81
2017-01-31T10:23:32.271Z,90.34
2017-01-31T10:24:32.257Z,90.34
2017-01-31T10:25:32.249Z,89.96
2017-01-31T10:26:32.234Z,89.86
2017-01-31T10:27:32.230Z,90.15
2017-01-31T10:28:32.209Z,89.2
2017-01-31T10:29:32.198Z,89.58
2017-01-31T10:30:32.190Z,89.86
2017-01-31T10:31:31.789Z,90.53
2017-01-31T10:32:32.160Z,90.43
2017-01-31T10:33:32.148Z,90.53
2017-01-31T10:34:32.135Z,90.43
2017-01-31T10:35:32.123Z,90.53
2017-01-31T10:36:32.111Z,89.67
2017-01-31T10:37:32.126Z,89.11
2017-01-31T10:38:32.085Z,88.92
2017-01-31T10:39:32.072Z,89.58
2017-01-31T10:40:32.062Z,90.01
2017-01-31T10:41:32.048Z,89.48
2017-01-31T10:42:32.037Z,90.24
2017-01-31T10:43:32.023Z,90.29
2017-01-31T10:44:32.018Z,89.63
2017-01-31T10:45:31.999Z,89.44
2017-01-31T10:46:31.986Z,89.34
2017-01-31T10:47:31.976Z,88.49
2017-01-31T10:48:31.959Z,88.78
2017-01-31T10:49:31.949Z,88.87
2017-01-31T10:50:31.934Z,90.01
2017-01-31T10:51:31.921Z,90.67
2017-01-31T10:52:31.907Z,89.63
2017-01-31T10:53:31.897Z,89.15
2017-01-31T10:54:31.891Z,88.59
2017-01-31T10:55:31.872Z,89.15
2017-01-31T10:56:31.857Z,89.91
2017-01-31T10:57:31.848Z,89.63
2017-01-31T10:58:31.830Z,89.53
2017-01-31T10:59:31.431Z,90.2
2017-01-31T11:00:31.804Z,90.2
2017-01-31T11:01:31.794Z,89.06
2017-01-31T11:02:31.781Z,89.15
2017-01-31T11:03:31.767Z,89.53
2017-01-31T11:04:31.751Z,89.91
2017-01-31T11:05:31.739Z,90.2
2017-01-31T11:06:31.726Z,90.67
2017-01-31T11:07:31.712Z,91.24
2017-01-31T11:08:31.699Z,91.24
2017-01-31T11:09:31.685Z,91.71
2017-01-31T11:10:31.675Z,91.81
2017-01-31T11:11:31.662Z,91.14
2017-01-31T11:12:31.649Z,91.9
2017-01-31T11:13:31.635Z,91.43
2017-01-31T11:14:31.622Z,91.24
2017-01-31T11:15:31.221Z,90.72
2017-01-31T11:16:31.596Z,91.09
2017-01-31T11:17:31.582Z,91.38
2017-01-31T11:18:31.580Z,91.85
2017-01-31T11:19:31.559Z,91.9
2017-01-31T11:20:31.546Z,91.71
2017-01-31T11:21:31.537Z,91.33
2017-01-31T11:22:31.531Z,91.24
2017-01-31T11:23:31.508Z,91.33
2017-01-31T11:24:31.498Z,90.62
2017-01-31T11:25:31.493Z,90.9
2017-01-31T11:26:31.475Z,88.24
2017-01-31T11:27:31.460Z,87.68
2017-01-31T11:28:31.450Z,88.24
2017-01-31T11:29:31.447Z,87.3
2017-01-31T11:30:31.043Z,87.11
2017-01-31T11:31:31.416Z,87.2
2017-01-31T11:32:31.409Z,86.54
2017-01-31T11:33:31.395Z,86.11
2017-01-31T11:34:31.381Z,87.3
2017-01-31T11:35:31.371Z,88.87
2017-01-31T11:36:31.360Z,88.91
2017-01-31T11:37:31.348Z,87.87
2017-01-31T11:38:31.344Z,86.44
2017-01-31T11:39:31.325Z,87.39
2017-01-31T11:40:31.317Z,87.58
2017-01-31T11:41:31.302Z,86.63
2017-01-31T11:42:31.290Z,86.63
2017-01-31T11:43:31.280Z,88.1
2017-01-31T11:44:31.271Z,88.24
2017-01-31T11:45:31.256Z,88.15
2017-01-31T11:46:31.246Z,87.58
2017-01-31T11:47:31.235Z,87.68
2017-01-31T11:48:31.223Z,87.49
2017-01-31T11:49:31.211Z,87.11
2017-01-31T11:50:31.203Z,87.3
2017-01-31T11:51:31.191Z,87.3
2017-01-31T11:52:31.177Z,86.35
2017-01-31T11:53:31.167Z,85.78
2017-01-31T11:54:31.155Z,86.16
2017-01-31T11:55:31.145Z,85.93
2017-01-31T11:56:31.132Z,85.55
2017-01-31T11:57:31.121Z,87.16
2017-01-31T11:58:31.119Z,87.3
2017-01-31T11:59:31.100Z,87.25
2017-01-31T12:00:31.085Z,87.49
2017-01-31T12:01:31.076Z,87.58
2017-01-31T12:02:31.066Z,86.72
2017-01-31T12:03:31.053Z,85.11
2017-01-31T12:04:31.043Z,84.5
2017-01-31T12:05:31.029Z,84.41
2017-01-31T12:06:30.634Z,85.55
2017-01-31T12:07:31.007Z,86.11
2017-01-31T12:08:30.994Z,86.11
2017-01-31T12:09:30.985Z,86.68
2017-01-31T12:10:30.971Z,86.87
2017-01-31T12:11:30.960Z,87.35
2017-01-31T12:12:30.947Z,87.06
2017-01-31T12:13:30.967Z,86.68
2017-01-31T12:14:30.926Z,87.25
2017-01-31T12:15:30.913Z,86.97
2017-01-31T12:16:30.907Z,86.68
2017-01-31T12:17:30.892Z,86.4
2017-01-31T12:18:30.882Z,86.02
2017-01-31T12:19:30.869Z,85.74
2017-01-31T12:20:30.855Z,84.69
2017-01-31T12:21:30.845Z,84.41
2017-01-31T12:22:30.830Z,84.69
2017-01-31T12:23:30.820Z,84.84
2017-01-31T12:24:30.807Z,84.84
2017-01-31T12:25:30.797Z,85.88
2017-01-31T12:26:30.786Z,86.64
2017-01-31T12:27:30.774Z,85.97
2017-01-31T12:28:30.762Z,86.07
2017-01-31T12:29:30.751Z,85.97
2017-01-31T12:30:30.738Z,86.07
2017-01-31T12:31:30.726Z,87.21
2017-01-31T12:32:30.714Z,87.02
2017-01-31T12:33:30.701Z,87.3
2017-01-31T12:34:30.689Z,88.25
2017-01-31T12:35:30.678Z,88.06
2017-01-31T12:36:30.698Z,88.25
2017-01-31T12:37:30.652Z,86.74
2017-01-31T12:38:30.641Z,85.78
2017-01-31T12:39:30.629Z,85.5
2017-01-31T12:40:30.618Z,85.69
2017-01-31T12:41:30.606Z,85.03
2017-01-31T12:42:30.594Z,85.13
2017-01-31T12:43:30.581Z,85.41
2017-01-31T12:44:30.569Z,85.31
2017-01-31T12:45:30.557Z,85.78
2017-01-31T12:46:30.545Z,86.83
2017-01-31T12:47:30.531Z,87.21
2017-01-31T12:48:30.522Z,86.93
2017-01-31T12:49:30.507Z,87.02
2017-01-31T12:50:30.503Z,86.93
2017-01-31T12:51:30.506Z,86.83
2017-01-31T12:52:30.469Z,85.97
2017-01-31T12:53:30.489Z,85.5
2017-01-31T12:54:30.444Z,85.17
2017-01-31T12:55:30.433Z,86.22
2017-01-31T12:56:30.420Z,86.88